Share

Hibbing, MN (55746)

2:24 AM CDT on April 25, 2014 (GMT -0500)
Chisholm-hibbing (KHIB) Elev 1352 ft | 47.39 °N, 92.84 °W | Change Station
Active Advisory: Winter Weather Advisory Active Notice: Record ReportLocal Storm Report

Current weather conditions updated 7 minutes ago

Overcast
Overcast
33 °F
Feels Like 33 °F
N
0
Wind Variable Wind from North
Sunrise 6:05 AM
Sunset 8:15 PM
Moon Waning Crescent

Today is forecast to be Warmer than yesterday. Showers of rain and snow early.

Pressure 29.65 in
Visibility 2.0 miles
Clouds Mostly Cloudy 400 ft
Overcast 1700 ft
Dew Point 31 °F
Humidity 92%
Rainfall 0.02 in
Snow Depth Not available.
UV 0 out of 16
Pollen 2.70 out of 12
Air Quality Not available.
Flu Activity Sporadic
SPECI KHIB 250717Z AUTO 00000KT 2SM BR BKN004 OVC017 01/M01 A2965 RMK AO2 T00061006

More Conditions Fewer Conditions

Pressure 29.65 in
Visibility 2.0 miles
Clouds Mostly Cloudy 400 ft
Overcast 1700 ft
Dew Point 31 °F
Humidity 92%
Rainfall 0.02 in
Snow Depth Not available.
UV 0 out of 16
Pollen 2.70 out of 12
Air Quality Not available.
Flu Activity Sporadic
SPECI KHIB 250717Z AUTO 00000KT 2SM BR BKN004 OVC017 01/M01 A2965 RMK AO2 T00061006

More Conditions Fewer Conditions

10-Day Weather Forecast

Almanac

Astronomy

Apr. 25, 2014 Rise Set
Actual Time 6:05 AM CDT 8:15 PM CDT
Civil Twilight 5:31 AM CDT 8:48 PM CDT
Nautical Twilight 4:50 AM CDT 9:30 PM CDT
Astronomical Twilight 4:03 AM CDT 10:17 PM CDT
Moon 4:10 AM CDT 4:23 PM CDT
Length of Visible Light 15h 16m
Length of Day
14h 10m
Tomorrow will be 3m 7s longer.
Waning Crescent, 18% of the Moon is Illuminated
Today
Waning Crescent
Apr 29
New
May 6
First Quarter
May 14
Full
May 21
Last Quarter

Today's Extremes

State Highs State Lows

Community

  • Deer in evening light
    Deer in evening light
  • Critter
    Critter
  • Jone Runs Falls
    Jone Runs Falls
  • Easter in Shenandoah National Park
    Easter in Shenandoah National Park
  • Sunset at Apalachicola Bay, Florida
    Sunset at Apalachicola Bay, Florida

WunderPhotos

Upload Photos

1,704,872 photos uploaded!

WunderBlogs® & News

Nearby

Snow Depth

Station Depth Elevation
No new snow has been reported.

Coastal Water Temperatures

Place Temperature
No Stations Reporting

Earthquake Activity

City Distance Mag. Time & Date
No recent earthquake activity has been reported nearby.
Minimum magnitude displayed is 2.5.

Nearby Weather Stations

Station Location Temp. Windchill Dew Point Humidity Wind Precip. Elev Updated Type
RAWS HIBBING MN, Hibbing, MN 32 °F 32 °F 32 °F 99% North  at  0 mph 0.00 in / hr 1350 ft 1:07 AM CDT MADIS

Show More Stations Show Fewer Stations

What do you think?

We're not finished. Please let us know what you like, what you don't like, and what you are still missing.